Wetterstation Vordersexau
Wetterdaten: Juni 2017
Datum Temp. A. Feuchte A. Luftdruck Regen Wind Richtung Taupunkt Windchill Windben
01.06.2017 21,8 C 72 % 1017,8 hPa 3,1 l/m 0,2 km/h O-SO 16,3 C 21,8 C 0,1 km/h
02.06.2017 21,7 C 68 % 1014,8 hPa 3,6 l/m 0,3 km/h SO 15,2 C 21,7 C 0,2 km/h
03.06.2017 20,8 C 72 % 1011,3 hPa 1,6 l/m 1,8 km/h W-NW 15,1 C 20,6 C 1,0 km/h
04.06.2017 18,8 C 63 % 1013,2 hPa 24,3 l/m 0,8 km/h W-NW 11,3 C 18,8 C 0,4 km/h
05.06.2017 17,5 C 67 % 1011,7 hPa 0,0 l/m 0,0 km/h O-SO 10,5 C 17,5 C 0,0 km/h
06.06.2017 14,0 C 75 % 1006,2 hPa 7,3 l/m 7,2 km/h O-SO 9,4 C 12,6 C 4,0 km/h
07.06.2017 13,9 C 70 % 1016,1 hPa 0,0 l/m 13,9 km/h W 8,1 C 11,0 C 7,7 km/h
08.06.2017 18,4 C 60 % 1016,1 hPa 0,0 l/m 0,4 km/h SO 9,2 C 18,3 C 0,2 km/h
09.06.2017 17,7 C 69 % 1012,7 hPa 3,1 l/m 3,4 km/h O 11,8 C 17,3 C 1,9 km/h
10.06.2017 20,7 C 63 % 1017,8 hPa 0,0 l/m 1,1 km/h W 12,7 C 20,6 C 0,6 km/h
11.06.2017 23,1 C 64 % 1014,9 hPa 0,0 l/m 0,1 km/h NO 15,0 C 23,1 C 0,1 km/h
12.06.2017 21,8 C 66 % 1014,6 hPa 0,0 l/m 0,9 km/h O-SO 14,6 C 21,8 C 0,5 km/h
13.06.2017 20,5 C 60 % 1015,3 hPa 0,0 l/m 1,6 km/h NO 11,4 C 20,5 C 0,9 km/h
14.06.2017 21,8 C 66 % 1013,6 hPa 0,0 l/m 0,1 km/h W 14,6 C 21,8 C 0,1 km/h
15.06.2017 23,9 C 66 % 1013,5 hPa 0,5 l/m 1,7 km/h N 16,3 C 23,9 C 0,9 km/h
16.06.2017 21,7 C 59 % 1018,7 hPa 0,0 l/m 2,5 km/h N-NO 12,4 C 21,6 C 1,4 km/h
17.06.2017 19,4 C 61 % 1022,8 hPa 0,0 l/m 3,5 km/h N-NO 11,1 C 19,2 C 1,9 km/h
18.06.2017 22,9 C 55 % 1019,3 hPa 0,0 l/m 2,9 km/h N-NO 12,4 C 22,8 C 1,6 km/h
19.06.2017 24,6 C 57 % 1016,4 hPa 0,0 l/m 0,0 km/h N-NO 14,4 C 24,6 C 0,0 km/h
20.06.2017 26,8 C 60 % 1013,7 hPa 0,0 l/m 4,0 km/h O-SO 17,3 C 26,8 C 2,2 km/h
21.06.2017 27,0 C 60 % 1012,8 hPa 0,0 l/m 2,0 km/h N-NO 17,5 C 27,0 C 1,1 km/h
22.06.2017 28,8 C 54 % 1012,3 hPa 0,0 l/m 4,3 km/h W-SW 17,2 C 28,8 C 2,4 km/h
23.06.2017 27,3 C 57 % 1014,1 hPa 0,0 l/m 4,0 km/h N-NO 17,4 C 27,3 C 2,2 km/h
24.06.2017 24,0 C 62 % 1015,2 hPa 0,0 l/m 3,2 km/h N-NO 15,6 C 23,9 C 1,8 km/h
25.06.2017 22,2 C 61 % 1013,4 hPa 0,0 l/m 7,9 km/h W 13,7 C 21,5 C 4,4 km/h
26.06.2017 25,2 C 55 % 1010,1 hPa 0,0 l/m 1,3 km/h N 14,5 C 25,2 C 0,7 km/h
27.06.2017 23,5 C 67 % 1005,0 hPa 2,1 l/m 0,4 km/h SO 16,6 C 23,5 C 0,2 km/h
28.06.2017 20,9 C 69 % 998,5 hPa 3,6 l/m 4,1 km/h S-SW 14,6 C 20,5 C 2,3 km/h
29.06.2017 18,1 C 72 % 999,4 hPa 3,6 l/m 8,7 km/h S 12,7 C 16,6 C 4,8 km/h
30.06.2017 19,5 C 59 % 1005,6 hPa 0,0 l/m 9,7 km/h S 10,7 C 18,2 C 5,4 km/h
Min-Datum 08.06.17 08.06.17 28.06.17 10 Tage 01.06.17 - 08.06.17 07.06.17 01.06.17
Min-Zeit 04:56 18:56 18:55 - 00:56 - 04:56 02:56 00:56
Minimum 6,6 C 24 % 995,2 hPa - 0,0 km/h - 4,3 C 1,2 C 0,0 km/h
Max-Datum 19.06.17 08.06.17 17.06.17 04.06.17 07.06.17 - 20.06.17 19.06.17 07.06.17
Max-Zeit 17:55 03:56 09:55 03:56 15:56 - 08:55 17:55 15:56
Maximum 39,4 C 85 % 1023,8 hPa 24,3 l/m 35,0 km/h
W
- 21,3 C 39,4 C 19,4 km/h
W
Durchschnitt 21,6 C 64 % 1012,9 hPa #52,8 l/m 3,1 km/h N-NO 13,7 C 21,3 C 1,7 km/h

Durchschnitt Minimum Temp.13,3 C
Durchschnitt Maximum Temp.31,6 C
www.sexauwetter.de